Muscatine, IA

4:24 AM CDT on April 24, 2018 (GMT -0500)
Muscatine Municipal

Weather History for KMUT - April, 2013

Change the Weather History Date:

Friday, April 19, 2013

  Actual Average Record
Temperature  
Mean Temperature 37 °F -  
Max Temperature 41 °F 64 °F 86 °F (1985)
Min Temperature 33 °F 44 °F 21 °F (1983)
Degree Days  
Heating Degree Days 28    
Moisture  
Dew Point 26 °F    
Average Humidity 64    
Maximum Humidity 75    
Minimum Humidity 52    
Precipitation  
Precipitation 0.00 in - - ()
Sea Level Pressure  
Sea Level Pressure 29.77 in    
Wind  
Wind Speed 22 mph (West)    
Max Wind Speed 29 mph    
Max Gust Speed 36 mph    
Visibility 10 miles    
Events      
Averages and records for this station are not official NWS values.
T = Trace of Precipitation, MM = Missing Value Source: NWS Daily Summary

Daily Weather History Graph

Daily Weather History Graph

Search for Another Location

Airport or City:

Astronomy

Apr. 19, 2013 Rise Set
Actual Time 6:18 AM CDT 7:49 PM CDT
Civil Twilight 5:49 AM CDT 8:18 PM CDT
Nautical Twilight 5:14 AM CDT 8:53 PM CDT
Astronomical Twilight 4:37 AM CDT 9:31 PM CDT
Moon 1:30 PM CDT (4/19) 2:38 AM CDT (4/19)
Length of Visible Light 14h 29m
Length of Day
13h 31m
First Quarter, 62% of the Moon is Illuminated
Apr 19
First Quarter
Apr 25
Full
May 2
Last Quarter
May 9
New
May 17
First Quarter

Hourly Weather History & Observations

Time (CDT) Temp. Windchill Dew Point Humidity Pressure Visibility Wind Dir Wind Speed Gust Speed Precip Events Conditions
12:15 AM 37.4 °F 26.4 °F 28.4 °F 70% 29.62 in 10.0 mi West 23.0 mph 32.2 mph N/A   Overcast
12:35 AM 37.4 °F 26.4 °F 28.4 °F 70% 29.62 in 10.0 mi West 23.0 mph 31.1 mph N/A   Mostly Cloudy
12:55 AM 35.6 °F 24.0 °F 28.4 °F 75% 29.62 in 10.0 mi West 23.0 mph 26.5 mph N/A   Mostly Cloudy
1:15 AM 37.4 °F 27.2 °F 28.4 °F 70% 29.62 in 10.0 mi West 19.6 mph 26.5 mph N/A   Overcast
1:35 AM 37.4 °F 26.9 °F 28.4 °F 70% 29.62 in 10.0 mi West 20.7 mph - N/A   Overcast
1:55 AM 35.6 °F 24.0 °F 28.4 °F 75% 29.61 in 10.0 mi West 23.0 mph 32.2 mph N/A   Overcast
2:15 AM 35.6 °F 24.2 °F 28.4 °F 75% 29.61 in 10.0 mi West 21.9 mph 34.5 mph N/A   Overcast
2:35 AM 35.6 °F 24.8 °F 28.4 °F 75% 29.61 in 10.0 mi West 19.6 mph 28.8 mph N/A   Overcast
2:55 AM 35.6 °F 24.0 °F 26.6 °F 70% 29.61 in 10.0 mi West 23.0 mph 29.9 mph N/A   Overcast
3:15 AM 35.6 °F 24.5 °F 26.6 °F 70% 29.62 in 10.0 mi West 20.7 mph 28.8 mph N/A   Overcast
3:35 AM 35.6 °F 24.2 °F 26.6 °F 70% 29.61 in 10.0 mi West 21.9 mph 27.6 mph N/A   Overcast
3:55 AM 35.6 °F 24.8 °F 28.4 °F 75% 29.62 in 10.0 mi West 19.6 mph 26.5 mph N/A   Overcast
4:15 AM 35.6 °F 23.7 °F 26.6 °F 70% 29.62 in 10.0 mi West 24.2 mph 31.1 mph N/A   Overcast
4:35 AM 35.6 °F 24.8 °F 28.4 °F 75% 29.62 in 10.0 mi West 19.6 mph 26.5 mph N/A   Overcast
4:55 AM 35.6 °F 24.2 °F 26.6 °F 70% 29.62 in 10.0 mi West 21.9 mph 29.9 mph N/A   Overcast
5:15 AM 35.6 °F 24.5 °F 26.6 °F 70% 29.62 in 10.0 mi West 20.7 mph 28.8 mph N/A   Overcast
5:55 AM 35.6 °F 23.4 °F 26.6 °F 70% 29.62 in 10.0 mi West 25.3 mph 32.2 mph N/A   Overcast
6:15 AM 35.6 °F 25.5 °F 26.6 °F 70% 29.63 in 10.0 mi West 17.3 mph 27.6 mph N/A   Overcast
6:35 AM 35.6 °F 24.8 °F 26.6 °F 70% 29.64 in 10.0 mi West 19.6 mph 26.5 mph N/A   Overcast
6:55 AM 35.6 °F 24.0 °F 26.6 °F 70% 29.65 in 10.0 mi West 23.0 mph 29.9 mph N/A   Overcast
7:15 AM 35.6 °F 25.2 °F 26.6 °F 70% 29.65 in 10.0 mi West 18.4 mph 26.5 mph N/A   Overcast
7:35 AM 35.6 °F 25.2 °F 26.6 °F 70% 29.66 in 10.0 mi West 18.4 mph 27.6 mph N/A   Overcast
7:55 AM 35.6 °F 23.2 °F 26.6 °F 70% 29.65 in 10.0 mi West 26.5 mph 32.2 mph N/A   Overcast
8:15 AM 35.6 °F 24.0 °F 26.6 °F 70% 29.66 in 10.0 mi West 23.0 mph 27.6 mph N/A   Overcast
8:35 AM 35.6 °F 23.7 °F 26.6 °F 70% 29.67 in 10.0 mi West 24.2 mph - N/A   Overcast
8:55 AM 35.6 °F 23.7 °F 26.6 °F 70% 29.67 in 10.0 mi West 24.2 mph 35.7 mph N/A   Overcast
9:15 AM 35.6 °F 24.2 °F 26.6 °F 70% 29.69 in 10.0 mi West 21.9 mph 29.9 mph N/A   Overcast
9:55 AM 33.8 °F 21.3 °F 24.8 °F 70% 29.70 in 10.0 mi West 24.2 mph 28.8 mph N/A   Overcast
10:15 AM 35.6 °F 23.7 °F 26.6 °F 70% 29.70 in 10.0 mi West 24.2 mph 34.5 mph N/A   Overcast
10:35 AM 35.6 °F 23.0 °F 24.8 °F 65% 29.71 in 10.0 mi West 27.6 mph 33.4 mph N/A   Overcast
10:55 AM 35.6 °F 23.2 °F 26.6 °F 70% 29.72 in 10.0 mi West 26.5 mph 31.1 mph N/A   Overcast
11:15 AM 35.6 °F 23.7 °F 24.8 °F 65% 29.72 in 10.0 mi West 24.2 mph 29.9 mph N/A   Overcast
11:35 AM 35.6 °F 24.8 °F 24.8 °F 65% 29.73 in 10.0 mi West 19.6 mph 28.8 mph N/A   Overcast
11:55 AM 37.4 °F 26.1 °F 24.8 °F 60% 29.73 in 10.0 mi West 24.2 mph 32.2 mph N/A   Overcast
12:15 PM 37.4 °F 25.6 °F 24.8 °F 60% 29.74 in 10.0 mi West 26.5 mph 32.2 mph N/A   Overcast
12:35 PM 37.4 °F 25.2 °F 24.8 °F 60% 29.74 in 10.0 mi West 28.8 mph 35.7 mph N/A   Overcast
12:55 PM 37.4 °F 25.9 °F 24.8 °F 60% 29.75 in 10.0 mi West 25.3 mph 29.9 mph N/A   Overcast
1:15 PM 37.4 °F 26.1 °F 24.8 °F 60% 29.75 in 10.0 mi West 24.2 mph 28.8 mph N/A   Overcast
1:35 PM 37.4 °F 26.4 °F 24.8 °F 60% 29.76 in 10.0 mi West 23.0 mph 32.2 mph N/A   Overcast
1:55 PM 39.2 °F 28.7 °F 24.8 °F 56% 29.77 in 10.0 mi WNW 23.0 mph 32.2 mph N/A   Overcast
2:15 PM 39.2 °F 29.6 °F 26.6 °F 61% 29.78 in 10.0 mi West 19.6 mph 29.9 mph N/A   Overcast
2:35 PM 39.2 °F 28.3 °F 26.6 °F 61% 29.78 in 10.0 mi WNW 25.3 mph 34.5 mph N/A   Overcast
2:55 PM 39.2 °F 27.8 °F 26.6 °F 61% 29.79 in 10.0 mi WNW 27.6 mph 33.4 mph N/A   Overcast
3:15 PM 39.2 °F 28.7 °F 26.6 °F 61% 29.80 in 10.0 mi WNW 23.0 mph 34.5 mph N/A   Overcast
3:35 PM 39.2 °F 28.3 °F 26.6 °F 61% 29.80 in 10.0 mi West 25.3 mph 33.4 mph N/A   Overcast
3:55 PM 41.0 °F 30.9 °F 24.8 °F 53% 29.81 in 10.0 mi WNW 24.2 mph 33.4 mph N/A   Overcast
4:15 PM 41.0 °F 30.7 °F 26.6 °F 57% 29.82 in 10.0 mi WNW 25.3 mph 32.2 mph N/A   Overcast
4:35 PM 41.0 °F 31.1 °F 24.8 °F 53% 29.82 in 10.0 mi WNW 23.0 mph 34.5 mph N/A   Overcast
4:55 PM 39.2 °F 27.8 °F 24.8 °F 56% 29.83 in 10.0 mi WNW 27.6 mph 33.4 mph N/A   Overcast
5:15 PM 39.2 °F 28.0 °F 24.8 °F 56% 29.84 in 10.0 mi WNW 26.5 mph 32.2 mph N/A   Overcast
5:35 PM 39.2 °F 28.3 °F 24.8 °F 56% 29.85 in 10.0 mi WNW 25.3 mph 31.1 mph N/A   Overcast
5:55 PM 39.2 °F 27.6 °F 23.0 °F 52% 29.87 in 10.0 mi WNW 28.8 mph 33.4 mph N/A   Overcast
6:15 PM 39.2 °F 28.5 °F 24.8 °F 56% 29.88 in 10.0 mi WNW 24.2 mph 32.2 mph N/A   Overcast
6:35 PM 37.4 °F 27.8 °F 26.6 °F 65% 29.89 in 10.0 mi WNW 17.3 mph 26.5 mph N/A   Overcast
6:55 PM 39.2 °F 29.0 °F 24.8 °F 56% 29.90 in 10.0 mi WNW 21.9 mph 29.9 mph N/A   Overcast
7:15 PM 37.4 °F 27.5 °F 24.8 °F 60% 29.92 in 10.0 mi WNW 18.4 mph - N/A   Overcast
7:35 PM 37.4 °F 26.6 °F 24.8 °F 60% 29.93 in 10.0 mi WNW 21.9 mph 26.5 mph N/A   Overcast
7:55 PM 37.4 °F 27.5 °F 24.8 °F 60% 29.94 in 10.0 mi WNW 18.4 mph 24.2 mph N/A   Overcast
8:15 PM 37.4 °F 27.2 °F 24.8 °F 60% 29.95 in 10.0 mi WNW 19.6 mph 24.2 mph N/A   Overcast
8:35 PM 37.4 °F 28.5 °F 24.8 °F 60% 29.97 in 10.0 mi NW 15.0 mph - N/A   Overcast
8:55 PM 37.4 °F 28.9 °F 24.8 °F 60% 29.97 in 10.0 mi WNW 13.8 mph - N/A   Overcast
9:15 PM 37.4 °F 28.2 °F 24.8 °F 60% 29.99 in 10.0 mi WNW 16.1 mph 23.0 mph N/A   Overcast
9:35 PM 37.4 °F 28.2 °F 24.8 °F 60% 29.99 in 10.0 mi WNW 16.1 mph 24.2 mph N/A   Overcast
9:55 PM 37.4 °F 27.8 °F 21.2 °F 52% 30.00 in 10.0 mi WNW 17.3 mph 23.0 mph N/A   Overcast
10:15 PM 37.4 °F 27.8 °F 21.2 °F 52% 30.01 in 10.0 mi WNW 17.3 mph 24.2 mph N/A   Overcast
10:35 PM 37.4 °F 28.2 °F 21.2 °F 52% 30.02 in 10.0 mi WNW 16.1 mph 26.5 mph N/A   Overcast
10:55 PM 35.6 °F 25.9 °F 21.2 °F 56% 30.02 in 10.0 mi WNW 16.1 mph 20.7 mph N/A   Scattered Clouds
11:15 PM 35.6 °F 26.2 °F 21.2 °F 56% 30.03 in 10.0 mi West 15.0 mph - N/A   Clear
11:35 PM 33.8 °F 25.3 °F 21.2 °F 60% 30.03 in 10.0 mi West 11.5 mph 20.7 mph N/A   Clear
11:55 PM 33.8 °F 24.8 °F 21.2 °F 60% 30.04 in 10.0 mi West 12.7 mph - N/A   Clear